createdAt,value
2022-12-03T00:00:22.973Z,99.99
2022-12-03T00:01:23.011Z,99.99
2022-12-03T00:02:23.121Z,99.99
2022-12-03T00:03:23.093Z,99.99
2022-12-03T00:04:22.930Z,99.99
2022-12-03T00:05:22.903Z,99.99
2022-12-03T00:06:22.891Z,99.99
2022-12-03T00:07:23.163Z,99.99
2022-12-03T00:08:22.873Z,99.99
2022-12-03T00:09:22.874Z,99.99
2022-12-03T00:10:22.841Z,99.99
2022-12-03T00:11:22.849Z,99.99
2022-12-03T00:12:22.817Z,99.99
2022-12-03T00:13:22.802Z,99.99
2022-12-03T00:14:22.809Z,99.99
2022-12-03T00:15:22.777Z,99.99
2022-12-03T00:16:22.907Z,99.99
2022-12-03T00:17:22.764Z,99.99
2022-12-03T00:18:22.741Z,99.99
2022-12-03T00:19:22.750Z,99.99
2022-12-03T00:20:22.715Z,99.99
2022-12-03T00:21:24.606Z,99.99
2022-12-03T00:22:22.688Z,99.99
2022-12-03T00:23:22.676Z,99.99
2022-12-03T00:24:22.680Z,99.99
2022-12-03T00:25:22.656Z,99.99
2022-12-03T00:26:22.642Z,99.99
2022-12-03T00:27:22.643Z,99.99
2022-12-03T00:28:22.617Z,99.99
2022-12-03T00:29:22.614Z,99.99
2022-12-03T00:30:22.588Z,99.99
2022-12-03T00:31:22.652Z,99.99
2022-12-03T00:32:22.566Z,99.99
2022-12-03T00:33:22.553Z,99.99
2022-12-03T00:34:22.555Z,99.99
2022-12-03T00:35:22.527Z,99.99
2022-12-03T00:36:22.510Z,99.99
2022-12-03T00:37:22.502Z,99.99
2022-12-03T00:38:22.488Z,99.99
2022-12-03T00:39:22.488Z,99.99
2022-12-03T00:40:22.464Z,99.99
2022-12-03T00:41:22.445Z,99.99
2022-12-03T00:42:22.443Z,99.99
2022-12-03T00:43:22.446Z,99.99
2022-12-03T00:44:22.428Z,99.99
2022-12-03T00:45:22.395Z,99.99
2022-12-03T00:46:22.432Z,99.99
2022-12-03T00:47:22.373Z,99.99
2022-12-03T00:48:22.361Z,99.99
2022-12-03T00:49:22.360Z,99.99
2022-12-03T00:50:22.332Z,99.99
2022-12-03T00:51:22.318Z,99.99
2022-12-03T00:52:22.307Z,99.99
2022-12-03T00:53:22.299Z,99.99
2022-12-03T00:54:25.631Z,99.99
2022-12-03T00:55:22.274Z,99.99
2022-12-03T00:56:22.260Z,99.99
2022-12-03T00:57:22.248Z,99.99
2022-12-03T00:58:22.233Z,99.99
2022-12-03T00:59:22.255Z,99.99
2022-12-03T01:00:22.209Z,99.99
2022-12-03T01:01:22.308Z,99.99
2022-12-03T01:02:22.261Z,99.99
2022-12-03T01:03:22.165Z,99.99
2022-12-03T01:04:22.283Z,99.99
2022-12-03T01:05:22.151Z,99.99
2022-12-03T01:06:22.140Z,99.99
2022-12-03T01:07:22.114Z,99.99
2022-12-03T01:08:22.106Z,99.99
2022-12-03T01:09:22.110Z,99.99
2022-12-03T01:10:22.079Z,99.99
2022-12-03T01:11:22.065Z,99.99
2022-12-03T01:12:22.055Z,99.99
2022-12-03T01:13:22.045Z,99.99
2022-12-03T01:14:22.050Z,99.99
2022-12-03T01:15:22.042Z,99.99
2022-12-03T01:16:22.111Z,99.99
2022-12-03T01:17:21.993Z,99.99
2022-12-03T01:18:21.980Z,99.99
2022-12-03T01:19:22.009Z,99.99
2022-12-03T01:20:21.995Z,99.99
2022-12-03T01:21:21.941Z,99.99
2022-12-03T01:22:21.924Z,99.99
2022-12-03T01:23:21.920Z,99.99
2022-12-03T01:24:21.906Z,99.99
2022-12-03T01:25:21.931Z,99.99
2022-12-03T01:26:21.897Z,99.99
2022-12-03T01:27:21.882Z,99.99
2022-12-03T01:28:21.858Z,99.99
2022-12-03T01:29:21.836Z,99.99
2022-12-03T01:30:21.841Z,99.99
2022-12-03T01:31:21.910Z,99.99
2022-12-03T01:32:21.806Z,99.99
2022-12-03T01:33:21.791Z,99.99
2022-12-03T01:34:21.772Z,99.99
2022-12-03T01:35:21.777Z,99.99
2022-12-03T01:36:21.746Z,99.99
2022-12-03T01:37:21.738Z,99.99
2022-12-03T01:38:21.723Z,99.99
2022-12-03T01:39:21.720Z,99.99
2022-12-03T01:40:21.719Z,99.99
2022-12-03T01:41:21.686Z,99.99
2022-12-03T01:42:21.671Z,99.99
2022-12-03T01:43:21.658Z,99.99
2022-12-03T01:44:21.647Z,99.99
2022-12-03T01:45:21.651Z,99.99
2022-12-03T01:46:21.694Z,99.99
2022-12-03T01:47:21.627Z,99.62
2022-12-03T01:48:21.596Z,99.93
2022-12-03T01:49:21.583Z,99.93
2022-12-03T01:50:21.595Z,99.99
2022-12-03T01:51:21.560Z,99.99
2022-12-03T01:52:21.545Z,99.99
2022-12-03T01:53:21.558Z,99.99
2022-12-03T01:54:21.528Z,99.99
2022-12-03T01:55:21.525Z,99.99
2022-12-03T01:56:21.502Z,99.99
2022-12-03T01:57:21.505Z,99.99
2022-12-03T01:58:21.471Z,99.99
2022-12-03T01:59:21.462Z,99.99
2022-12-03T02:00:21.456Z,99.99
2022-12-03T02:01:21.491Z,99.93
2022-12-03T02:02:21.416Z,99.99
2022-12-03T02:03:21.429Z,99.99
2022-12-03T02:04:21.438Z,99.99
2022-12-03T02:05:21.398Z,99.99
2022-12-03T02:06:21.374Z,99.99
2022-12-03T02:07:21.368Z,99.82
2022-12-03T02:08:21.341Z,99.51
2022-12-03T02:09:21.329Z,99.72
2022-12-03T02:10:21.338Z,99.72
2022-12-03T02:11:21.323Z,99.82
2022-12-03T02:12:21.293Z,99.72
2022-12-03T02:13:21.285Z,99.82
2022-12-03T02:14:21.276Z,99.99
2022-12-03T02:15:21.267Z,99.99
2022-12-03T02:16:21.315Z,99.99
2022-12-03T02:17:21.239Z,99.99
2022-12-03T02:18:21.219Z,99.88
2022-12-03T02:19:21.254Z,99.88
2022-12-03T02:20:21.221Z,99.77
2022-12-03T02:21:21.181Z,99.67
2022-12-03T02:22:21.166Z,99.67
2022-12-03T02:23:21.155Z,99.57
2022-12-03T02:24:21.147Z,99.57
2022-12-03T02:25:21.165Z,99.57
2022-12-03T02:26:21.114Z,99.36
2022-12-03T02:27:21.114Z,99.41
2022-12-03T02:28:21.090Z,99.51
2022-12-03T02:29:21.078Z,99.62
2022-12-03T02:30:21.080Z,99.62
2022-12-03T02:31:21.098Z,99.51
2022-12-03T02:32:21.053Z,99.46
2022-12-03T02:33:21.027Z,99.46
2022-12-03T02:34:21.011Z,99.30
2022-12-03T02:35:21.041Z,99.15
2022-12-03T02:36:20.988Z,99.15
2022-12-03T02:37:20.978Z,99.05
2022-12-03T02:38:20.965Z,99.05
2022-12-03T02:39:20.950Z,98.94
2022-12-03T02:40:20.955Z,98.94
2022-12-03T02:41:20.930Z,99.05
2022-12-03T02:42:20.910Z,99.15
2022-12-03T02:43:20.899Z,99.15
2022-12-03T02:44:20.887Z,99.15
2022-12-03T02:45:20.878Z,98.84
2022-12-03T02:46:20.920Z,99.10
2022-12-03T02:47:20.849Z,99.20
2022-12-03T02:48:20.836Z,99.15
2022-12-03T02:49:20.826Z,99.20
2022-12-03T02:50:20.812Z,99.20
2022-12-03T02:51:20.863Z,99.15
2022-12-03T02:52:20.790Z,99.20
2022-12-03T02:53:20.806Z,99.15
2022-12-03T02:54:20.761Z,99.15
2022-12-03T02:55:21.619Z,99.15
2022-12-03T02:56:20.748Z,99.05
2022-12-03T02:57:20.727Z,99.05
2022-12-03T02:58:20.712Z,99.30
2022-12-03T02:59:20.698Z,99.36
2022-12-03T03:00:20.687Z,99.26
2022-12-03T03:01:20.751Z,99.36
2022-12-03T03:02:20.686Z,99.30
2022-12-03T03:03:20.651Z,99.30
2022-12-03T03:04:20.635Z,99.36
2022-12-03T03:05:20.626Z,99.26
2022-12-03T03:06:20.630Z,99.26
2022-12-03T03:07:20.619Z,99.26
2022-12-03T03:08:20.642Z,99.30
2022-12-03T03:09:20.601Z,99.26
2022-12-03T03:10:20.563Z,99.26
2022-12-03T03:11:20.572Z,99.36
2022-12-03T03:12:20.538Z,99.36
2022-12-03T03:13:20.529Z,99.41
2022-12-03T03:14:20.515Z,99.46
2022-12-03T03:15:20.504Z,99.62
2022-12-03T03:16:20.568Z,99.62
2022-12-03T03:17:20.478Z,99.57
2022-12-03T03:18:20.462Z,99.41
2022-12-03T03:19:20.448Z,99.51
2022-12-03T03:20:20.436Z,99.41
2022-12-03T03:21:20.447Z,99.30
2022-12-03T03:22:20.411Z,99.51
2022-12-03T03:23:20.420Z,99.51
2022-12-03T03:24:20.392Z,99.41
2022-12-03T03:25:20.397Z,99.30
2022-12-03T03:26:20.381Z,99.41
2022-12-03T03:27:20.353Z,99.51
2022-12-03T03:28:20.335Z,99.62
2022-12-03T03:29:20.324Z,99.62
2022-12-03T03:30:20.316Z,99.41
2022-12-03T03:31:20.352Z,99.30
2022-12-03T03:32:20.284Z,99.30
2022-12-03T03:33:20.273Z,99.41
2022-12-03T03:34:20.261Z,99.41
2022-12-03T03:35:20.248Z,99.41
2022-12-03T03:36:20.253Z,99.62
2022-12-03T03:37:20.225Z,99.51
2022-12-03T03:38:20.211Z,99.51
2022-12-03T03:39:20.222Z,99.62
2022-12-03T03:40:20.191Z,99.51
2022-12-03T03:41:20.193Z,99.41
2022-12-03T03:42:20.169Z,99.30
2022-12-03T03:43:20.155Z,99.20
2022-12-03T03:44:20.139Z,99.30
2022-12-03T03:45:24.150Z,99.30
2022-12-03T03:46:20.261Z,99.30
2022-12-03T03:47:20.104Z,99.30
2022-12-03T03:48:20.089Z,99.30
2022-12-03T03:49:20.077Z,99.20
2022-12-03T03:50:20.061Z,99.30
2022-12-03T03:51:20.078Z,99.30
2022-12-03T03:52:20.045Z,99.30
2022-12-03T03:53:20.038Z,99.41
2022-12-03T03:54:20.009Z,99.41
2022-12-03T03:55:20.645Z,99.26
2022-12-03T03:56:19.995Z,99.26
2022-12-03T03:57:19.996Z,99.26
2022-12-03T03:58:19.968Z,99.30
2022-12-03T03:59:19.950Z,99.15
2022-12-03T04:00:19.938Z,98.84
2022-12-03T04:01:20.036Z,98.94
2022-12-03T04:02:19.928Z,98.94
2022-12-03T04:03:19.903Z,98.94
2022-12-03T04:04:19.984Z,98.94
2022-12-03T04:05:19.873Z,98.94
2022-12-03T04:06:19.862Z,98.84
2022-12-03T04:07:19.865Z,98.84
2022-12-03T04:08:19.837Z,98.74
2022-12-03T04:09:19.828Z,98.74
2022-12-03T04:10:19.815Z,98.84
2022-12-03T04:11:19.819Z,98.94
2022-12-03T04:12:19.804Z,98.94
2022-12-03T04:13:19.779Z,98.94
2022-12-03T04:14:19.762Z,98.84
2022-12-03T04:15:19.750Z,98.84
2022-12-03T04:16:19.788Z,98.94
2022-12-03T04:17:19.749Z,99.05
2022-12-03T04:18:19.712Z,99.10
2022-12-03T04:19:19.699Z,99.20
2022-12-03T04:20:19.685Z,99.30
2022-12-03T04:21:19.675Z,99.20
2022-12-03T04:22:19.680Z,99.20
2022-12-03T04:23:19.688Z,99.20
2022-12-03T04:24:19.640Z,99.10
2022-12-03T04:25:19.627Z,99.10
2022-12-03T04:26:19.614Z,99.30
2022-12-03T04:27:19.638Z,99.30
2022-12-03T04:28:19.592Z,99.30
2022-12-03T04:29:19.572Z,99.30
2022-12-03T04:30:19.559Z,99.41
2022-12-03T04:31:19.616Z,99.20
2022-12-03T04:32:19.557Z,99.30
2022-12-03T04:33:19.525Z,99.30
2022-12-03T04:34:19.522Z,99.30
2022-12-03T04:35:19.576Z,99.41
2022-12-03T04:36:19.487Z,99.41
2022-12-03T04:37:19.492Z,99.41
2022-12-03T04:38:19.458Z,99.41
2022-12-03T04:39:19.449Z,99.30
2022-12-03T04:40:19.435Z,99.20
2022-12-03T04:41:19.424Z,99.10
2022-12-03T04:42:19.407Z,98.99
2022-12-03T04:43:19.432Z,98.88
2022-12-03T04:44:19.386Z,98.88
2022-12-03T04:45:19.372Z,98.99
2022-12-03T04:46:19.392Z,98.99
2022-12-03T04:47:19.347Z,98.84
2022-12-03T04:48:19.346Z,98.84
2022-12-03T04:49:19.334Z,98.94
2022-12-03T04:50:19.308Z,98.88
2022-12-03T04:51:19.299Z,98.94
2022-12-03T04:52:19.284Z,98.99
2022-12-03T04:53:19.289Z,98.78
2022-12-03T04:54:19.276Z,98.88
2022-12-03T04:55:19.247Z,98.88
2022-12-03T04:56:19.236Z,98.84
2022-12-03T04:57:19.225Z,98.74
2022-12-03T04:58:19.225Z,98.74
2022-12-03T04:59:19.223Z,98.63
2022-12-03T05:00:19.190Z,98.63
2022-12-03T05:01:19.278Z,98.63
2022-12-03T05:02:19.308Z,98.63
2022-12-03T05:03:19.168Z,98.63
2022-12-03T05:04:19.132Z,98.74
2022-12-03T05:05:19.130Z,98.74
2022-12-03T05:06:19.109Z,98.63
2022-12-03T05:07:19.096Z,98.84
2022-12-03T05:08:19.186Z,98.84
2022-12-03T05:09:19.074Z,98.16
2022-12-03T05:10:19.057Z,98.72
2022-12-03T05:11:19.061Z,99.45
2022-12-03T05:12:19.034Z,99.76
2022-12-03T05:13:19.039Z,99.82
2022-12-03T05:14:19.104Z,99.82
2022-12-03T05:15:19.017Z,99.72
2022-12-03T05:16:19.049Z,99.51
2022-12-03T05:17:18.970Z,99.30
2022-12-03T05:18:18.973Z,99.30
2022-12-03T05:19:18.964Z,99.10
2022-12-03T05:20:18.932Z,99.10
2022-12-03T05:21:18.922Z,99.20
2022-12-03T05:22:18.908Z,99.10
2022-12-03T05:23:18.936Z,99.10
2022-12-03T05:24:18.886Z,98.99
2022-12-03T05:25:18.873Z,98.88
2022-12-03T05:26:18.855Z,98.99
2022-12-03T05:27:23.483Z,98.99
2022-12-03T05:28:19.849Z,99.10
2022-12-03T05:29:18.822Z,98.99
2022-12-03T05:30:18.803Z,98.99
2022-12-03T05:31:18.889Z,98.99
2022-12-03T05:32:18.783Z,98.88
2022-12-03T05:33:18.785Z,98.78
2022-12-03T05:34:18.763Z,98.68
2022-12-03T05:35:18.740Z,98.78
2022-12-03T05:36:18.740Z,98.88
2022-12-03T05:37:18.718Z,98.78
2022-12-03T05:38:18.720Z,98.99
2022-12-03T05:39:18.691Z,98.88
2022-12-03T05:40:18.680Z,98.84
2022-12-03T05:41:18.667Z,98.36
2022-12-03T05:42:18.656Z,98.78
2022-12-03T05:43:18.664Z,98.88
2022-12-03T05:44:20.591Z,98.78
2022-12-03T05:45:18.628Z,98.78
2022-12-03T05:46:18.711Z,98.88
2022-12-03T05:47:18.614Z,98.88
2022-12-03T05:48:18.597Z,98.88
2022-12-03T05:49:18.566Z,98.78
2022-12-03T05:50:18.557Z,98.78
2022-12-03T05:51:18.539Z,98.36
2022-12-03T05:52:18.541Z,98.57
2022-12-03T05:53:18.521Z,98.68
2022-12-03T05:54:18.536Z,98.68
2022-12-03T05:55:18.532Z,98.68
2022-12-03T05:56:18.491Z,98.57
2022-12-03T05:57:18.463Z,98.68
2022-12-03T05:58:18.464Z,98.47
2022-12-03T05:59:18.463Z,98.57
2022-12-03T06:00:18.433Z,98.78
2022-12-03T06:01:18.443Z,98.88
2022-12-03T06:02:18.586Z,98.88
2022-12-03T06:03:18.598Z,98.68
2022-12-03T06:04:18.427Z,98.26
2022-12-03T06:05:18.396Z,98.52
2022-12-03T06:06:18.429Z,98.72
2022-12-03T06:07:18.441Z,98.68
2022-12-03T06:08:18.393Z,98.47
2022-12-03T06:09:18.390Z,98.57
2022-12-03T06:10:18.313Z,98.57
2022-12-03T06:11:18.303Z,98.57
2022-12-03T06:12:18.284Z,98.68
2022-12-03T06:13:18.266Z,98.57
2022-12-03T06:14:18.271Z,98.68
2022-12-03T06:15:18.239Z,98.57
2022-12-03T06:16:18.322Z,98.68
2022-12-03T06:17:18.230Z,98.68
2022-12-03T06:18:18.205Z,98.57
2022-12-03T06:19:18.551Z,98.57
2022-12-03T06:20:18.183Z,98.36
2022-12-03T06:21:19.074Z,98.47
2022-12-03T06:22:18.151Z,98.47
2022-12-03T06:23:18.136Z,98.57
2022-12-03T06:24:18.146Z,98.57
2022-12-03T06:25:18.109Z,98.47
2022-12-03T06:26:18.100Z,98.47
2022-12-03T06:27:18.092Z,98.36
2022-12-03T06:28:18.074Z,98.26
2022-12-03T06:29:18.079Z,98.16
2022-12-03T06:30:18.050Z,98.36
2022-12-03T06:31:18.121Z,98.57
2022-12-03T06:32:18.025Z,98.57
2022-12-03T06:33:18.012Z,98.57
2022-12-03T06:34:18.011Z,98.57
2022-12-03T06:35:18.005Z,98.57
2022-12-03T06:36:22.781Z,98.57
2022-12-03T06:37:17.963Z,98.68
2022-12-03T06:38:17.949Z,98.57
2022-12-03T06:39:17.955Z,98.57
2022-12-03T06:40:17.924Z,98.47
2022-12-03T06:41:17.921Z,98.47
2022-12-03T06:42:17.898Z,98.47
2022-12-03T06:43:17.889Z,98.47
2022-12-03T06:44:17.890Z,98.36
2022-12-03T06:45:17.857Z,98.16
2022-12-03T06:46:17.933Z,98.62
2022-12-03T06:47:17.845Z,98.72
2022-12-03T06:48:17.823Z,98.72
2022-12-03T06:49:17.825Z,98.52
2022-12-03T06:50:17.798Z,98.72
2022-12-03T06:51:17.806Z,98.83
2022-12-03T06:52:17.778Z,98.62
2022-12-03T06:53:17.761Z,98.62
2022-12-03T06:54:17.759Z,98.72
2022-12-03T06:55:17.733Z,98.83
2022-12-03T06:56:21.499Z,98.93
2022-12-03T06:57:17.712Z,99.04
2022-12-03T06:58:17.694Z,99.04
2022-12-03T06:59:17.699Z,98.83
2022-12-03T07:00:17.694Z,98.93
2022-12-03T07:01:17.691Z,99.04
2022-12-03T07:02:17.643Z,98.93
2022-12-03T07:03:17.669Z,98.93
2022-12-03T07:04:17.637Z,99.14
2022-12-03T07:05:17.616Z,99.14
2022-12-03T07:06:17.592Z,99.24
2022-12-03T07:07:17.604Z,99.24
2022-12-03T07:08:17.734Z,99.24
2022-12-03T07:09:17.575Z,99.24
2022-12-03T07:10:17.543Z,99.45
2022-12-03T07:11:17.532Z,99.45
2022-12-03T07:12:17.521Z,99.45
2022-12-03T07:13:17.506Z,99.45
2022-12-03T07:14:17.496Z,99.55
2022-12-03T07:15:17.492Z,99.55
2022-12-03T07:16:17.522Z,99.45
2022-12-03T07:17:17.454Z,99.66
2022-12-03T07:18:17.441Z,99.66
2022-12-03T07:19:17.433Z,99.66
2022-12-03T07:20:17.444Z,99.66
2022-12-03T07:21:17.403Z,99.55
2022-12-03T07:22:17.388Z,99.51
2022-12-03T07:23:17.397Z,99.51
2022-12-03T07:24:17.368Z,99.62
2022-12-03T07:25:22.917Z,99.62
2022-12-03T07:26:18.346Z,99.51
2022-12-03T07:27:17.326Z,99.62
2022-12-03T07:28:17.313Z,99.41
2022-12-03T07:29:17.305Z,99.51
2022-12-03T07:30:17.319Z,99.51
2022-12-03T07:31:17.348Z,99.82
2022-12-03T07:32:17.262Z,99.72
2022-12-03T07:33:17.250Z,99.72
2022-12-03T07:34:17.237Z,99.82
2022-12-03T07:35:17.247Z,99.82
2022-12-03T07:36:17.215Z,99.72
2022-12-03T07:37:22.697Z,99.72
2022-12-03T07:38:17.188Z,99.72
2022-12-03T07:39:17.194Z,99.57
2022-12-03T07:40:17.182Z,99.51
2022-12-03T07:41:17.149Z,99.46
2022-12-03T07:42:17.138Z,99.26
2022-12-03T07:43:17.128Z,99.26
2022-12-03T07:44:17.118Z,99.26
2022-12-03T07:45:17.115Z,99.10
2022-12-03T07:46:17.168Z,99.20
2022-12-03T07:47:17.071Z,99.30
2022-12-03T07:48:17.067Z,99.36
2022-12-03T07:49:17.047Z,99.26
2022-12-03T07:50:17.051Z,99.26
2022-12-03T07:51:17.021Z,99.05
2022-12-03T07:52:17.013Z,99.05
2022-12-03T07:53:16.995Z,98.74
2022-12-03T07:54:16.985Z,98.94
2022-12-03T07:55:17.007Z,98.74
2022-12-03T07:56:16.959Z,98.84
2022-12-03T07:57:16.949Z,98.84
2022-12-03T07:58:16.934Z,98.63
2022-12-03T07:59:16.920Z,98.63
2022-12-03T08:00:16.930Z,98.63
2022-12-03T08:01:16.950Z,98.63
2022-12-03T08:02:21.237Z,98.53
2022-12-03T08:03:16.871Z,98.22
2022-12-03T08:04:16.867Z,98.22
2022-12-03T08:05:16.864Z,98.32
2022-12-03T08:06:16.832Z,98.63
2022-12-03T08:07:16.821Z,98.53
2022-12-03T08:08:16.969Z,98.53
2022-12-03T08:09:16.795Z,98.74
2022-12-03T08:10:16.801Z,98.59
2022-12-03T08:11:16.797Z,98.17
2022-12-03T08:12:16.762Z,97.86
2022-12-03T08:13:16.773Z,97.96
2022-12-03T08:14:16.736Z,98.17
2022-12-03T08:15:16.736Z,97.96
2022-12-03T08:16:16.839Z,97.75
2022-12-03T08:17:16.691Z,97.65
2022-12-03T08:18:16.686Z,97.70
2022-12-03T08:19:16.675Z,98.11
2022-12-03T08:20:16.675Z,98.32
2022-12-03T08:21:16.652Z,98.27
2022-12-03T08:22:16.638Z,98.07
2022-12-03T08:23:16.640Z,97.96
2022-12-03T08:24:16.612Z,98.07
2022-12-03T08:25:16.612Z,97.91
2022-12-03T08:26:16.581Z,98.63
2022-12-03T08:27:16.601Z,98.69
2022-12-03T08:28:16.568Z,98.48
2022-12-03T08:29:16.546Z,98.07
2022-12-03T08:30:16.535Z,97.34
2022-12-03T08:31:16.593Z,97.86
2022-12-03T08:32:16.575Z,98.27
2022-12-03T08:33:16.502Z,98.17
2022-12-03T08:34:16.486Z,97.96
2022-12-03T08:35:16.473Z,97.75
2022-12-03T08:36:16.473Z,97.30
2022-12-03T08:37:16.443Z,97.75
2022-12-03T08:38:16.432Z,97.24
2022-12-03T08:39:16.426Z,97.13
2022-12-03T08:40:16.409Z,97.24
2022-12-03T08:41:16.411Z,97.24
2022-12-03T08:42:16.382Z,97.13
2022-12-03T08:43:16.387Z,97.55
2022-12-03T08:44:16.384Z,97.75
2022-12-03T08:45:16.343Z,97.86
2022-12-03T08:46:16.448Z,97.81
2022-12-03T08:47:16.320Z,97.40
2022-12-03T08:48:16.307Z,97.30
2022-12-03T08:49:16.297Z,97.30
2022-12-03T08:50:16.280Z,97.14
2022-12-03T08:51:16.283Z,96.94
2022-12-03T08:52:16.254Z,96.83
2022-12-03T08:53:16.244Z,96.73
2022-12-03T08:54:16.231Z,96.62
2022-12-03T08:55:16.216Z,96.52
2022-12-03T08:56:16.247Z,96.42
2022-12-03T08:57:16.191Z,96.73
2022-12-03T08:58:16.181Z,96.52
2022-12-03T08:59:16.184Z,96.58
2022-12-03T09:00:16.158Z,96.48
2022-12-03T09:01:16.249Z,96.27
2022-12-03T09:02:16.131Z,95.86
2022-12-03T09:03:16.122Z,95.75
2022-12-03T09:04:16.226Z,95.86
2022-12-03T09:05:16.094Z,95.86
2022-12-03T09:06:16.105Z,95.96
2022-12-03T09:07:16.090Z,95.65
2022-12-03T09:08:16.131Z,95.29
2022-12-03T09:09:16.044Z,95.19
2022-12-03T09:10:16.033Z,94.88
2022-12-03T09:11:16.030Z,94.88
2022-12-03T09:12:16.003Z,95.09
2022-12-03T09:13:15.991Z,94.88
2022-12-03T09:14:18.767Z,94.67
2022-12-03T09:15:15.984Z,94.26
2022-12-03T09:16:16.023Z,94.46
2022-12-03T09:17:15.942Z,94.57
2022-12-03T09:18:15.952Z,94.57
2022-12-03T09:19:15.923Z,94.57
2022-12-03T09:20:15.909Z,94.57
2022-12-03T09:21:15.905Z,94.46
2022-12-03T09:22:15.883Z,94.57
2022-12-03T09:23:15.866Z,94.46
2022-12-03T09:24:15.858Z,94.78
2022-12-03T09:25:15.839Z,94.98
2022-12-03T09:26:15.846Z,95.09
2022-12-03T09:27:15.815Z,95.19
2022-12-03T09:28:15.804Z,95.40
2022-12-03T09:29:15.800Z,95.29
2022-12-03T09:30:15.784Z,95.29
2022-12-03T09:31:15.931Z,95.40
2022-12-03T09:32:18.564Z,95.44
2022-12-03T09:33:15.740Z,95.50
2022-12-03T09:34:15.729Z,95.71
2022-12-03T09:35:15.718Z,96.02
2022-12-03T09:36:15.703Z,95.86
2022-12-03T09:37:15.706Z,95.96
2022-12-03T09:38:15.686Z,95.96
2022-12-03T09:39:15.667Z,95.96
2022-12-03T09:40:15.656Z,96.06
2022-12-03T09:41:15.639Z,96.27
2022-12-03T09:42:15.961Z,96.17
2022-12-03T09:43:15.625Z,96.27
2022-12-03T09:44:18.119Z,96.27
2022-12-03T09:45:15.586Z,96.31
2022-12-03T09:46:15.676Z,96.52
2022-12-03T09:47:15.595Z,96.52
2022-12-03T09:48:15.565Z,96.73
2022-12-03T09:49:16.299Z,96.73
2022-12-03T09:50:15.524Z,97.04
2022-12-03T09:51:15.511Z,96.89
2022-12-03T09:52:15.515Z,96.58
2022-12-03T09:53:15.487Z,96.58
2022-12-03T09:54:15.473Z,96.48
2022-12-03T09:55:15.466Z,96.48
2022-12-03T09:56:15.459Z,96.27
2022-12-03T09:57:15.485Z,95.96
2022-12-03T09:58:15.423Z,95.86
2022-12-03T09:59:15.409Z,95.81
2022-12-03T10:00:15.398Z,95.61
2022-12-03T10:01:15.456Z,95.54
2022-12-03T10:02:15.387Z,95.65
2022-12-03T10:03:15.381Z,95.65
2022-12-03T10:04:15.401Z,95.75
2022-12-03T10:05:15.334Z,95.81
2022-12-03T10:06:15.326Z,95.71
2022-12-03T10:07:15.323Z,95.50
2022-12-03T10:08:15.433Z,95.04
2022-12-03T10:09:15.285Z,94.84
2022-12-03T10:10:15.270Z,94.63
2022-12-03T10:11:15.256Z,94.63
2022-12-03T10:12:15.256Z,94.42
2022-12-03T10:13:15.229Z,94.42
2022-12-03T10:14:15.220Z,94.42
2022-12-03T10:15:15.208Z,94.32
2022-12-03T10:16:15.241Z,94.01
2022-12-03T10:17:15.261Z,94.01
2022-12-03T10:18:15.180Z,93.90
2022-12-03T10:19:15.177Z,93.80
2022-12-03T10:20:15.139Z,93.80
2022-12-03T10:21:15.128Z,93.80
2022-12-03T10:22:15.127Z,93.59
2022-12-03T10:23:15.101Z,93.59
2022-12-03T10:24:15.088Z,93.49
2022-12-03T10:25:15.075Z,93.38
2022-12-03T10:26:15.066Z,93.07
2022-12-03T10:27:15.063Z,93.13
2022-12-03T10:28:15.035Z,92.93
2022-12-03T10:29:15.021Z,92.93
2022-12-03T10:30:15.122Z,92.82
2022-12-03T10:31:15.094Z,92.93
2022-12-03T10:32:15.068Z,92.78
2022-12-03T10:33:18.878Z,92.57
2022-12-03T10:34:14.960Z,92.36
2022-12-03T10:35:14.967Z,91.80
2022-12-03T10:36:14.933Z,91.70
2022-12-03T10:37:14.965Z,91.70
2022-12-03T10:38:14.907Z,92.01
2022-12-03T10:39:14.891Z,91.28
2022-12-03T10:40:14.878Z,91.08
2022-12-03T10:41:14.869Z,90.77
2022-12-03T10:42:14.864Z,90.87
2022-12-03T10:43:14.844Z,90.97
2022-12-03T10:44:14.824Z,91.18
2022-12-03T10:45:14.811Z,91.08
2022-12-03T10:46:14.971Z,91.39
2022-12-03T10:47:14.906Z,90.97
2022-12-03T10:48:14.802Z,90.66
2022-12-03T10:49:14.765Z,90.66
2022-12-03T10:50:14.745Z,90.56
2022-12-03T10:51:14.752Z,90.66
2022-12-03T10:52:14.723Z,90.56
2022-12-03T10:53:14.723Z,90.45
2022-12-03T10:54:14.710Z,90.35
2022-12-03T10:55:14.685Z,89.83
2022-12-03T10:56:14.675Z,90.10
2022-12-03T10:57:14.744Z,89.52
2022-12-03T10:58:14.655Z,90.14
2022-12-03T10:59:14.633Z,90.45
2022-12-03T11:00:14.615Z,90.66
2022-12-03T11:01:14.713Z,90.77
2022-12-03T11:02:14.588Z,90.83
2022-12-03T11:03:14.647Z,90.83
2022-12-03T11:04:14.582Z,90.52
2022-12-03T11:05:14.548Z,90.20
2022-12-03T11:06:14.546Z,90.31
2022-12-03T11:07:14.544Z,89.69
2022-12-03T11:08:14.561Z,89.65
2022-12-03T11:09:14.499Z,89.58
2022-12-03T11:10:14.483Z,89.34
2022-12-03T11:11:14.470Z,89.23
2022-12-03T11:12:14.455Z,89.13
2022-12-03T11:13:14.460Z,89.34
2022-12-03T11:14:18.162Z,89.13
2022-12-03T11:15:14.422Z,88.40
2022-12-03T11:16:14.469Z,88.55
2022-12-03T11:17:14.392Z,88.86
2022-12-03T11:18:14.392Z,88.79
2022-12-03T11:19:14.370Z,89.31
2022-12-03T11:20:19.448Z,89.94
2022-12-03T11:21:15.388Z,89.31
2022-12-03T11:22:15.334Z,89.21
2022-12-03T11:23:14.352Z,89.11
2022-12-03T11:24:14.307Z,88.96
2022-12-03T11:25:14.293Z,88.76
2022-12-03T11:26:18.883Z,89.11
2022-12-03T11:27:14.268Z,89.21
2022-12-03T11:28:14.268Z,89.17
2022-12-03T11:29:14.241Z,88.96
2022-12-03T11:30:14.250Z,88.45
2022-12-03T11:31:14.296Z,88.69
2022-12-03T11:32:14.208Z,89.29
2022-12-03T11:33:14.208Z,89.61
2022-12-03T11:34:14.196Z,90.02
2022-12-03T11:35:14.167Z,90.29
2022-12-03T11:36:14.150Z,89.77
2022-12-03T11:37:14.135Z,88.94
2022-12-03T11:38:14.135Z,89.00
2022-12-03T11:39:14.147Z,89.00
2022-12-03T11:40:14.104Z,89.00
2022-12-03T11:41:14.089Z,89.42
2022-12-03T11:42:14.069Z,89.31
2022-12-03T11:43:14.076Z,89.52
2022-12-03T11:44:14.053Z,89.42
2022-12-03T11:45:14.035Z,89.58
2022-12-03T11:46:14.061Z,89.73
2022-12-03T11:47:14.010Z,89.73
2022-12-03T11:48:14.025Z,89.69
2022-12-03T11:49:13.986Z,89.79
2022-12-03T11:50:13.978Z,89.79
2022-12-03T11:51:13.958Z,89.58
2022-12-03T11:52:13.946Z,89.58
2022-12-03T11:53:13.930Z,89.69
2022-12-03T11:54:13.935Z,89.07
2022-12-03T11:55:13.925Z,89.07
2022-12-03T11:56:13.897Z,89.07
2022-12-03T11:57:13.879Z,89.28
2022-12-03T11:58:13.873Z,89.38
2022-12-03T11:59:13.905Z,89.28
2022-12-03T12:00:13.845Z,89.38
2022-12-03T12:01:13.833Z,89.17
2022-12-03T12:02:13.813Z,89.38
2022-12-03T12:03:13.970Z,89.48
2022-12-03T12:04:13.969Z,89.28
2022-12-03T12:05:13.780Z,89.38
2022-12-03T12:06:13.763Z,88.96
2022-12-03T12:07:13.752Z,88.96
2022-12-03T12:08:13.814Z,89.38
2022-12-03T12:09:13.744Z,89.79
2022-12-03T12:10:13.713Z,89.79
2022-12-03T12:11:13.722Z,90.10
2022-12-03T12:12:13.690Z,90.20
2022-12-03T12:13:13.712Z,90.41
2022-12-03T12:14:13.686Z,90.83
2022-12-03T12:15:13.653Z,90.97
2022-12-03T12:16:13.673Z,91.60
2022-12-03T12:17:13.626Z,91.39
2022-12-03T12:18:13.611Z,91.49
2022-12-03T12:19:13.615Z,91.39
2022-12-03T12:20:13.581Z,91.49
2022-12-03T12:21:13.575Z,91.60
2022-12-03T12:22:13.564Z,91.49
2022-12-03T12:23:13.554Z,91.39
2022-12-03T12:24:13.548Z,91.43
2022-12-03T12:25:13.528Z,91.64
2022-12-03T12:26:13.528Z,91.64
2022-12-03T12:27:13.515Z,91.85
2022-12-03T12:28:13.480Z,91.95
2022-12-03T12:29:13.488Z,92.05
2022-12-03T12:30:13.461Z,92.05
2022-12-03T12:31:13.522Z,92.26
2022-12-03T12:32:13.429Z,92.16
2022-12-03T12:33:13.420Z,92.05
2022-12-03T12:34:13.420Z,92.05
2022-12-03T12:35:13.389Z,91.95
2022-12-03T12:36:13.382Z,92.05
2022-12-03T12:37:13.376Z,92.16
2022-12-03T12:38:13.349Z,92.16
2022-12-03T12:39:13.354Z,92.05
2022-12-03T12:40:13.327Z,91.95
2022-12-03T12:41:13.312Z,91.53
2022-12-03T12:42:13.301Z,91.58
2022-12-03T12:43:17.610Z,91.68
2022-12-03T12:44:14.292Z,91.53
2022-12-03T12:45:13.261Z,91.43
2022-12-03T12:46:46.245Z,91.43
2022-12-03T12:47:14.277Z,91.53
2022-12-03T12:48:13.219Z,91.43
2022-12-03T12:49:13.223Z,91.49
2022-12-03T12:50:13.252Z,91.60
2022-12-03T12:51:13.185Z,91.22
2022-12-03T12:52:13.176Z,90.91